sensor_id;sensor_type;location;lat;lon;timestamp;pressure;altitude;pressure_sealevel;temperature
79492;BMP180;68950;53.098;18.032;2023-05-07T00:00:12;101849.80;;;
79492;BMP180;68950;53.098;18.032;2023-05-07T00:03:02;101849.00;;;
79492;BMP180;68950;53.098;18.032;2023-05-07T00:05:29;101847.40;;;
79492;BMP180;68950;53.098;18.032;2023-05-07T00:07:56;101845.80;;;
79492;BMP180;68950;53.098;18.032;2023-05-07T00:10:22;101843.80;;;
79492;BMP180;68950;53.098;18.032;2023-05-07T00:12:49;101842.20;;;
79492;BMP180;68950;53.098;18.032;2023-05-07T00:15:15;101843.20;;;
79492;BMP180;68950;53.098;18.032;2023-05-07T00:17:42;101843.80;;;
79492;BMP180;68950;53.098;18.032;2023-05-07T00:20:09;101845.80;;;
79492;BMP180;68950;53.098;18.032;2023-05-07T00:22:36;101847.20;;;
79492;BMP180;68950;53.098;18.032;2023-05-07T00:25:04;101847.40;;;
79492;BMP180;68950;53.098;18.032;2023-05-07T00:27:31;101849.40;;;
79492;BMP180;68950;53.098;18.032;2023-05-07T00:29:58;101848.20;;;
79492;BMP180;68950;53.098;18.032;2023-05-07T00:32:24;101850.60;;;
79492;BMP180;68950;53.098;18.032;2023-05-07T00:34:51;101852.80;;;
79492;BMP180;68950;53.098;18.032;2023-05-07T00:37:17;101859.40;;;
79492;BMP180;68950;53.098;18.032;2023-05-07T00:39:44;101856.80;;;
79492;BMP180;68950;53.098;18.032;2023-05-07T00:42:10;101859.40;;;
79492;BMP180;68950;53.098;18.032;2023-05-07T00:44:37;101858.80;;;
79492;BMP180;68950;53.098;18.032;2023-05-07T00:47:05;101860.20;;;
79492;BMP180;68950;53.098;18.032;2023-05-07T00:49:44;101864.00;;;
79492;BMP180;68950;53.098;18.032;2023-05-07T00:52:15;101862.20;;;
79492;BMP180;68950;53.098;18.032;2023-05-07T00:54:43;101867.40;;;
79492;BMP180;68950;53.098;18.032;2023-05-07T00:57:10;101868.80;;;
79492;BMP180;68950;53.098;18.032;2023-05-07T00:59:38;101866.80;;;
79492;BMP180;68950;53.098;18.032;2023-05-07T01:02:06;101870.00;;;
79492;BMP180;68950;53.098;18.032;2023-05-07T01:04:33;101869.00;;;
79492;BMP180;68950;53.098;18.032;2023-05-07T01:07:01;101864.80;;;
79492;BMP180;68950;53.098;18.032;2023-05-07T01:09:29;101865.00;;;
79492;BMP180;68950;53.098;18.032;2023-05-07T01:11:57;101867.00;;;
79492;BMP180;68950;53.098;18.032;2023-05-07T01:14:24;101868.20;;;
79492;BMP180;68950;53.098;18.032;2023-05-07T01:16:52;101868.20;;;
79492;BMP180;68950;53.098;18.032;2023-05-07T01:19:19;101870.80;;;
79492;BMP180;68950;53.098;18.032;2023-05-07T01:21:48;101866.20;;;
79492;BMP180;68950;53.098;18.032;2023-05-07T01:24:15;101865.20;;;
79492;BMP180;68950;53.098;18.032;2023-05-07T01:26:43;101870.20;;;
79492;BMP180;68950;53.098;18.032;2023-05-07T01:29:13;101872.60;;;
79492;BMP180;68950;53.098;18.032;2023-05-07T01:31:42;101875.80;;;
79492;BMP180;68950;53.098;18.032;2023-05-07T01:34:11;101882.80;;;
79492;BMP180;68950;53.098;18.032;2023-05-07T01:36:39;101883.60;;;
79492;BMP180;68950;53.098;18.032;2023-05-07T01:39:08;101880.60;;;
79492;BMP180;68950;53.098;18.032;2023-05-07T01:41:35;101886.80;;;
79492;BMP180;68950;53.098;18.032;2023-05-07T01:44:03;101887.80;;;
79492;BMP180;68950;53.098;18.032;2023-05-07T01:46:32;101894.00;;;
79492;BMP180;68950;53.098;18.032;2023-05-07T01:48:59;101898.80;;;
79492;BMP180;68950;53.098;18.032;2023-05-07T01:51:26;101896.20;;;
79492;BMP180;68950;53.098;18.032;2023-05-07T01:53:53;101892.00;;;
79492;BMP180;68950;53.098;18.032;2023-05-07T01:56:20;101893.00;;;
79492;BMP180;68950;53.098;18.032;2023-05-07T01:58:47;101891.40;;;
79492;BMP180;68950;53.098;18.032;2023-05-07T02:01:14;101893.80;;;
79492;BMP180;68950;53.098;18.032;2023-05-07T02:03:41;101894.80;;;
79492;BMP180;68950;53.098;18.032;2023-05-07T02:06:07;101898.20;;;
79492;BMP180;68950;53.098;18.032;2023-05-07T02:08:34;101900.20;;;
79492;BMP180;68950;53.098;18.032;2023-05-07T02:11:01;101901.40;;;
79492;BMP180;68950;53.098;18.032;2023-05-07T02:13:32;101901.00;;;
79492;BMP180;68950;53.098;18.032;2023-05-07T02:15:58;101898.80;;;
79492;BMP180;68950;53.098;18.032;2023-05-07T02:18:25;101897.60;;;
79492;BMP180;68950;53.098;18.032;2023-05-07T02:20:52;101899.80;;;
79492;BMP180;68950;53.098;18.032;2023-05-07T02:23:18;101902.00;;;
79492;BMP180;68950;53.098;18.032;2023-05-07T02:25:45;101904.20;;;
79492;BMP180;68950;53.098;18.032;2023-05-07T02:28:13;101908.40;;;
79492;BMP180;68950;53.098;18.032;2023-05-07T02:30:39;101915.40;;;
79492;BMP180;68950;53.098;18.032;2023-05-07T02:33:06;101912.60;;;
79492;BMP180;68950;53.098;18.032;2023-05-07T02:35:34;101912.40;;;
79492;BMP180;68950;53.098;18.032;2023-05-07T02:38:01;101915.40;;;
79492;BMP180;68950;53.098;18.032;2023-05-07T02:40:28;101913.40;;;
79492;BMP180;68950;53.098;18.032;2023-05-07T02:42:55;101916.60;;;
79492;BMP180;68950;53.098;18.032;2023-05-07T02:45:21;101921.40;;;
79492;BMP180;68950;53.098;18.032;2023-05-07T02:47:48;101921.60;;;
79492;BMP180;68950;53.098;18.032;2023-05-07T02:50:14;101916.00;;;
79492;BMP180;68950;53.098;18.032;2023-05-07T02:52:41;101910.40;;;
79492;BMP180;68950;53.098;18.032;2023-05-07T02:55:08;101915.00;;;
79492;BMP180;68950;53.098;18.032;2023-05-07T02:57:35;101911.00;;;
79492;BMP180;68950;53.098;18.032;2023-05-07T03:00:14;101913.80;;;
79492;BMP180;68950;53.098;18.032;2023-05-07T03:02:41;101911.20;;;
79492;BMP180;68950;53.098;18.032;2023-05-07T03:05:08;101912.20;;;
79492;BMP180;68950;53.098;18.032;2023-05-07T03:07:36;101919.40;;;
79492;BMP180;68950;53.098;18.032;2023-05-07T03:10:04;101919.80;;;
79492;BMP180;68950;53.098;18.032;2023-05-07T03:12:30;101921.20;;;
79492;BMP180;68950;53.098;18.032;2023-05-07T03:14:57;101920.00;;;
79492;BMP180;68950;53.098;18.032;2023-05-07T03:17:24;101928.40;;;
79492;BMP180;68950;53.098;18.032;2023-05-07T03:19:51;101929.80;;;
79492;BMP180;68950;53.098;18.032;2023-05-07T03:22:17;101932.80;;;
79492;BMP180;68950;53.098;18.032;2023-05-07T03:24:44;101935.80;;;
79492;BMP180;68950;53.098;18.032;2023-05-07T03:27:10;101935.80;;;
79492;BMP180;68950;53.098;18.032;2023-05-07T03:29:37;101941.80;;;
79492;BMP180;68950;53.098;18.032;2023-05-07T03:32:04;101941.60;;;
79492;BMP180;68950;53.098;18.032;2023-05-07T03:34:32;101939.80;;;
79492;BMP180;68950;53.098;18.032;2023-05-07T03:36:58;101942.80;;;
79492;BMP180;68950;53.098;18.032;2023-05-07T03:39:25;101947.40;;;
79492;BMP180;68950;53.098;18.032;2023-05-07T03:41:52;101953.00;;;
79492;BMP180;68950;53.098;18.032;2023-05-07T03:44:19;101955.80;;;
79492;BMP180;68950;53.098;18.032;2023-05-07T03:46:46;101956.20;;;
79492;BMP180;68950;53.098;18.032;2023-05-07T03:49:13;101954.20;;;
79492;BMP180;68950;53.098;18.032;2023-05-07T03:51:39;101955.40;;;
79492;BMP180;68950;53.098;18.032;2023-05-07T03:54:06;101960.00;;;
79492;BMP180;68950;53.098;18.032;2023-05-07T03:56:33;101961.80;;;
79492;BMP180;68950;53.098;18.032;2023-05-07T03:59:01;101966.60;;;
79492;BMP180;68950;53.098;18.032;2023-05-07T04:01:28;101963.40;;;
79492;BMP180;68950;53.098;18.032;2023-05-07T04:03:55;101967.80;;;
79492;BMP180;68950;53.098;18.032;2023-05-07T04:06:22;101969.40;;;
79492;BMP180;68950;53.098;18.032;2023-05-07T04:08:49;101971.20;;;
79492;BMP180;68950;53.098;18.032;2023-05-07T04:11:15;101977.40;;;
79492;BMP180;68950;53.098;18.032;2023-05-07T04:13:42;101981.00;;;
79492;BMP180;68950;53.098;18.032;2023-05-07T04:16:08;101984.00;;;
79492;BMP180;68950;53.098;18.032;2023-05-07T04:18:35;101985.40;;;
79492;BMP180;68950;53.098;18.032;2023-05-07T04:21:01;101988.40;;;
79492;BMP180;68950;53.098;18.032;2023-05-07T04:23:28;101990.60;;;
79492;BMP180;68950;53.098;18.032;2023-05-07T04:25:55;101994.20;;;
79492;BMP180;68950;53.098;18.032;2023-05-07T04:28:23;101996.20;;;
79492;BMP180;68950;53.098;18.032;2023-05-07T04:30:50;101999.80;;;
79492;BMP180;68950;53.098;18.032;2023-05-07T04:33:17;102000.20;;;
79492;BMP180;68950;53.098;18.032;2023-05-07T04:35:44;102000.40;;;
79492;BMP180;68950;53.098;18.032;2023-05-07T04:38:11;102000.60;;;
79492;BMP180;68950;53.098;18.032;2023-05-07T04:40:37;101997.80;;;
79492;BMP180;68950;53.098;18.032;2023-05-07T04:43:05;102001.80;;;
79492;BMP180;68950;53.098;18.032;2023-05-07T04:45:32;102008.00;;;
79492;BMP180;68950;53.098;18.032;2023-05-07T04:47:59;102012.20;;;
79492;BMP180;68950;53.098;18.032;2023-05-07T04:50:25;102013.60;;;
79492;BMP180;68950;53.098;18.032;2023-05-07T04:52:52;102014.60;;;
79492;BMP180;68950;53.098;18.032;2023-05-07T04:55:19;102015.40;;;
79492;BMP180;68950;53.098;18.032;2023-05-07T04:57:46;102014.20;;;
79492;BMP180;68950;53.098;18.032;2023-05-07T05:00:14;102016.00;;;
79492;BMP180;68950;53.098;18.032;2023-05-07T05:02:41;102017.20;;;
79492;BMP180;68950;53.098;18.032;2023-05-07T05:05:08;102021.40;;;
79492;BMP180;68950;53.098;18.032;2023-05-07T05:07:34;102024.40;;;
79492;BMP180;68950;53.098;18.032;2023-05-07T05:10:02;102024.20;;;
79492;BMP180;68950;53.098;18.032;2023-05-07T05:12:29;102028.80;;;
79492;BMP180;68950;53.098;18.032;2023-05-07T05:14:57;102034.60;;;
79492;BMP180;68950;53.098;18.032;2023-05-07T05:17:23;102038.00;;;
79492;BMP180;68950;53.098;18.032;2023-05-07T05:19:50;102036.00;;;
79492;BMP180;68950;53.098;18.032;2023-05-07T05:22:17;102036.00;;;
79492;BMP180;68950;53.098;18.032;2023-05-07T05:24:43;102040.80;;;
79492;BMP180;68950;53.098;18.032;2023-05-07T05:27:10;102043.80;;;
79492;BMP180;68950;53.098;18.032;2023-05-07T05:29:37;102042.80;;;
79492;BMP180;68950;53.098;18.032;2023-05-07T05:32:03;102032.40;;;
79492;BMP180;68950;53.098;18.032;2023-05-07T05:34:30;102039.00;;;
79492;BMP180;68950;53.098;18.032;2023-05-07T05:36:56;102041.80;;;
79492;BMP180;68950;53.098;18.032;2023-05-07T05:39:23;102048.80;;;
79492;BMP180;68950;53.098;18.032;2023-05-07T05:41:50;102039.20;;;
79492;BMP180;68950;53.098;18.032;2023-05-07T05:44:16;102036.20;;;
79492;BMP180;68950;53.098;18.032;2023-05-07T05:46:43;102037.80;;;
79492;BMP180;68950;53.098;18.032;2023-05-07T05:49:10;102044.00;;;
79492;BMP180;68950;53.098;18.032;2023-05-07T05:51:36;102044.20;;;
79492;BMP180;68950;53.098;18.032;2023-05-07T05:54:03;102043.20;;;
79492;BMP180;68950;53.098;18.032;2023-05-07T05:56:30;102043.80;;;
79492;BMP180;68950;53.098;18.032;2023-05-07T05:58:57;102050.00;;;
79492;BMP180;68950;53.098;18.032;2023-05-07T06:01:24;102049.00;;;
79492;BMP180;68950;53.098;18.032;2023-05-07T06:03:50;102050.20;;;
79492;BMP180;68950;53.098;18.032;2023-05-07T06:06:17;102055.60;;;
79492;BMP180;68950;53.098;18.032;2023-05-07T06:08:43;102052.60;;;
79492;BMP180;68950;53.098;18.032;2023-05-07T06:11:10;102056.20;;;
79492;BMP180;68950;53.098;18.032;2023-05-07T06:13:37;102049.80;;;
79492;BMP180;68950;53.098;18.032;2023-05-07T06:16:05;102056.00;;;
79492;BMP180;68950;53.098;18.032;2023-05-07T06:18:31;102056.40;;;
79492;BMP180;68950;53.098;18.032;2023-05-07T06:20:58;102047.40;;;
79492;BMP180;68950;53.098;18.032;2023-05-07T06:23:24;102055.60;;;
79492;BMP180;68950;53.098;18.032;2023-05-07T06:25:51;102054.60;;;
79492;BMP180;68950;53.098;18.032;2023-05-07T06:28:18;102054.00;;;
79492;BMP180;68950;53.098;18.032;2023-05-07T06:30:45;102059.20;;;
79492;BMP180;68950;53.098;18.032;2023-05-07T06:33:11;102054.80;;;
79492;BMP180;68950;53.098;18.032;2023-05-07T06:35:38;102058.20;;;
79492;BMP180;68950;53.098;18.032;2023-05-07T06:38:05;102062.60;;;
79492;BMP180;68950;53.098;18.032;2023-05-07T06:40:31;102060.40;;;
79492;BMP180;68950;53.098;18.032;2023-05-07T06:42:58;102056.60;;;
79492;BMP180;68950;53.098;18.032;2023-05-07T06:45:25;102057.00;;;
79492;BMP180;68950;53.098;18.032;2023-05-07T06:47:51;102056.40;;;
79492;BMP180;68950;53.098;18.032;2023-05-07T06:50:18;102060.80;;;
79492;BMP180;68950;53.098;18.032;2023-05-07T06:52:44;102064.40;;;
79492;BMP180;68950;53.098;18.032;2023-05-07T06:55:11;102067.20;;;
79492;BMP180;68950;53.098;18.032;2023-05-07T06:57:38;102068.20;;;
79492;BMP180;68950;53.098;18.032;2023-05-07T07:00:06;102071.00;;;
79492;BMP180;68950;53.098;18.032;2023-05-07T07:02:36;102072.80;;;
79492;BMP180;68950;53.098;18.032;2023-05-07T07:05:04;102076.80;;;
79492;BMP180;68950;53.098;18.032;2023-05-07T07:07:31;102079.40;;;
79492;BMP180;68950;53.098;18.032;2023-05-07T07:09:57;102083.80;;;
79492;BMP180;68950;53.098;18.032;2023-05-07T07:12:24;102083.20;;;
79492;BMP180;68950;53.098;18.032;2023-05-07T07:14:52;102084.20;;;
79492;BMP180;68950;53.098;18.032;2023-05-07T07:17:19;102083.60;;;
79492;BMP180;68950;53.098;18.032;2023-05-07T07:19:45;102084.80;;;
79492;BMP180;68950;53.098;18.032;2023-05-07T07:22:12;102080.00;;;
79492;BMP180;68950;53.098;18.032;2023-05-07T07:24:38;102082.00;;;
79492;BMP180;68950;53.098;18.032;2023-05-07T07:27:05;102085.80;;;
79492;BMP180;68950;53.098;18.032;2023-05-07T07:29:31;102084.60;;;
79492;BMP180;68950;53.098;18.032;2023-05-07T07:31:58;102082.40;;;
79492;BMP180;68950;53.098;18.032;2023-05-07T07:34:25;102085.40;;;
79492;BMP180;68950;53.098;18.032;2023-05-07T07:36:51;102090.40;;;
79492;BMP180;68950;53.098;18.032;2023-05-07T07:39:18;102092.20;;;
79492;BMP180;68950;53.098;18.032;2023-05-07T07:41:44;102090.80;;;
79492;BMP180;68950;53.098;18.032;2023-05-07T07:44:11;102094.40;;;
79492;BMP180;68950;53.098;18.032;2023-05-07T07:46:39;102097.00;;;
79492;BMP180;68950;53.098;18.032;2023-05-07T07:49:06;102095.60;;;
79492;BMP180;68950;53.098;18.032;2023-05-07T07:51:32;102097.20;;;
79492;BMP180;68950;53.098;18.032;2023-05-07T07:53:59;102091.40;;;
79492;BMP180;68950;53.098;18.032;2023-05-07T07:56:27;102094.40;;;
79492;BMP180;68950;53.098;18.032;2023-05-07T07:58:53;102095.80;;;
79492;BMP180;68950;53.098;18.032;2023-05-07T08:01:20;102097.20;;;
79492;BMP180;68950;53.098;18.032;2023-05-07T08:03:47;102099.20;;;
79492;BMP180;68950;53.098;18.032;2023-05-07T08:06:14;102095.60;;;
79492;BMP180;68950;53.098;18.032;2023-05-07T08:08:40;102097.60;;;
79492;BMP180;68950;53.098;18.032;2023-05-07T08:11:07;102100.40;;;
79492;BMP180;68950;53.098;18.032;2023-05-07T08:13:34;102097.80;;;
79492;BMP180;68950;53.098;18.032;2023-05-07T08:16:01;102097.20;;;
79492;BMP180;68950;53.098;18.032;2023-05-07T08:18:27;102099.40;;;
79492;BMP180;68950;53.098;18.032;2023-05-07T08:20:55;102103.80;;;
79492;BMP180;68950;53.098;18.032;2023-05-07T08:23:22;102106.00;;;
79492;BMP180;68950;53.098;18.032;2023-05-07T08:25:49;102104.40;;;
79492;BMP180;68950;53.098;18.032;2023-05-07T08:28:17;102101.20;;;
79492;BMP180;68950;53.098;18.032;2023-05-07T08:30:44;102097.00;;;
79492;BMP180;68950;53.098;18.032;2023-05-07T08:33:10;102103.20;;;
79492;BMP180;68950;53.098;18.032;2023-05-07T08:35:37;102101.00;;;
79492;BMP180;68950;53.098;18.032;2023-05-07T08:38:03;102105.60;;;
79492;BMP180;68950;53.098;18.032;2023-05-07T08:40:37;102100.20;;;
79492;BMP180;68950;53.098;18.032;2023-05-07T08:43:06;102111.20;;;
79492;BMP180;68950;53.098;18.032;2023-05-07T08:45:34;102112.20;;;
79492;BMP180;68950;53.098;18.032;2023-05-07T08:48:03;102110.60;;;
79492;BMP180;68950;53.098;18.032;2023-05-07T08:50:35;102109.60;;;
79492;BMP180;68950;53.098;18.032;2023-05-07T08:53:04;102105.20;;;
79492;BMP180;68950;53.098;18.032;2023-05-07T08:55:31;102108.80;;;
79492;BMP180;68950;53.098;18.032;2023-05-07T08:57:58;102115.00;;;
79492;BMP180;68950;53.098;18.032;2023-05-07T09:00:25;102114.00;;;
79492;BMP180;68950;53.098;18.032;2023-05-07T09:02:53;102117.40;;;
79492;BMP180;68950;53.098;18.032;2023-05-07T09:05:20;102121.80;;;
79492;BMP180;68950;53.098;18.032;2023-05-07T09:07:47;102119.00;;;
79492;BMP180;68950;53.098;18.032;2023-05-07T09:10:14;102123.00;;;
79492;BMP180;68950;53.098;18.032;2023-05-07T09:12:40;102119.60;;;
79492;BMP180;68950;53.098;18.032;2023-05-07T09:15:09;102119.40;;;
79492;BMP180;68950;53.098;18.032;2023-05-07T09:17:35;102120.00;;;
79492;BMP180;68950;53.098;18.032;2023-05-07T09:20:04;102119.80;;;
79492;BMP180;68950;53.098;18.032;2023-05-07T09:22:32;102117.80;;;
79492;BMP180;68950;53.098;18.032;2023-05-07T09:24:59;102108.80;;;
79492;BMP180;68950;53.098;18.032;2023-05-07T09:27:26;102116.80;;;
79492;BMP180;68950;53.098;18.032;2023-05-07T09:29:52;102110.00;;;
79492;BMP180;68950;53.098;18.032;2023-05-07T09:32:19;102107.20;;;
79492;BMP180;68950;53.098;18.032;2023-05-07T09:34:46;102111.00;;;
79492;BMP180;68950;53.098;18.032;2023-05-07T09:37:13;102112.80;;;
79492;BMP180;68950;53.098;18.032;2023-05-07T09:39:47;102115.80;;;
79492;BMP180;68950;53.098;18.032;2023-05-07T09:42:14;102112.20;;;
79492;BMP180;68950;53.098;18.032;2023-05-07T09:44:44;102111.80;;;
79492;BMP180;68950;53.098;18.032;2023-05-07T09:47:12;102116.20;;;
79492;BMP180;68950;53.098;18.032;2023-05-07T09:49:47;102115.80;;;
79492;BMP180;68950;53.098;18.032;2023-05-07T09:52:15;102116.60;;;
79492;BMP180;68950;53.098;18.032;2023-05-07T09:54:43;102115.20;;;
79492;BMP180;68950;53.098;18.032;2023-05-07T09:57:12;102118.00;;;
79492;BMP180;68950;53.098;18.032;2023-05-07T09:59:42;102127.80;;;
79492;BMP180;68950;53.098;18.032;2023-05-07T10:02:11;102129.60;;;
79492;BMP180;68950;53.098;18.032;2023-05-07T10:04:40;102130.40;;;
79492;BMP180;68950;53.098;18.032;2023-05-07T10:07:07;102131.20;;;
79492;BMP180;68950;53.098;18.032;2023-05-07T10:09:36;102134.60;;;
79492;BMP180;68950;53.098;18.032;2023-05-07T10:12:06;102138.00;;;
79492;BMP180;68950;53.098;18.032;2023-05-07T10:14:33;102132.60;;;
79492;BMP180;68950;53.098;18.032;2023-05-07T10:17:02;102131.40;;;
79492;BMP180;68950;53.098;18.032;2023-05-07T10:19:29;102138.80;;;
79492;BMP180;68950;53.098;18.032;2023-05-07T10:22:04;102141.40;;;
79492;BMP180;68950;53.098;18.032;2023-05-07T10:24:33;102142.40;;;
79492;BMP180;68950;53.098;18.032;2023-05-07T10:27:12;102141.40;;;
79492;BMP180;68950;53.098;18.032;2023-05-07T10:31:03;102145.60;;;
79492;BMP180;68950;53.098;18.032;2023-05-07T10:33:35;102146.00;;;
79492;BMP180;68950;53.098;18.032;2023-05-07T10:36:05;102140.40;;;
79492;BMP180;68950;53.098;18.032;2023-05-07T10:38:32;102139.60;;;
79492;BMP180;68950;53.098;18.032;2023-05-07T10:40:59;102144.40;;;
79492;BMP180;68950;53.098;18.032;2023-05-07T10:43:43;102149.00;;;
79492;BMP180;68950;53.098;18.032;2023-05-07T10:51:30;102134.40;;;
79492;BMP180;68950;53.098;18.032;2023-05-07T10:56:42;102133.00;;;
79492;BMP180;68950;53.098;18.032;2023-05-07T11:04:25;102134.60;;;
79492;BMP180;68950;53.098;18.032;2023-05-07T11:15:06;102151.40;;;
79492;BMP180;68950;53.098;18.032;2023-05-07T11:17:34;102148.20;;;
79492;BMP180;68950;53.098;18.032;2023-05-07T11:20:02;102149.20;;;
79492;BMP180;68950;53.098;18.032;2023-05-07T11:25:05;102153.40;;;
79492;BMP180;68950;53.098;18.032;2023-05-07T11:27:33;102147.00;;;
79492;BMP180;68950;53.098;18.032;2023-05-07T11:30:00;102144.80;;;
79492;BMP180;68950;53.098;18.032;2023-05-07T11:32:31;102146.20;;;
79492;BMP180;68950;53.098;18.032;2023-05-07T11:35:00;102144.80;;;
79492;BMP180;68950;53.098;18.032;2023-05-07T11:37:28;102141.00;;;
79492;BMP180;68950;53.098;18.032;2023-05-07T11:40:07;102140.60;;;
79492;BMP180;68950;53.098;18.032;2023-05-07T11:42:37;102141.60;;;
79492;BMP180;68950;53.098;18.032;2023-05-07T11:45:08;102144.40;;;
79492;BMP180;68950;53.098;18.032;2023-05-07T11:47:35;102144.60;;;
79492;BMP180;68950;53.098;18.032;2023-05-07T11:50:07;102143.20;;;
79492;BMP180;68950;53.098;18.032;2023-05-07T11:52:34;102142.80;;;
79492;BMP180;68950;53.098;18.032;2023-05-07T11:55:03;102145.80;;;
79492;BMP180;68950;53.098;18.032;2023-05-07T11:57:33;102149.20;;;
79492;BMP180;68950;53.098;18.032;2023-05-07T12:00:02;102144.80;;;
79492;BMP180;68950;53.098;18.032;2023-05-07T12:02:30;102145.60;;;
79492;BMP180;68950;53.098;18.032;2023-05-07T12:05:00;102150.20;;;
79492;BMP180;68950;53.098;18.032;2023-05-07T12:07:26;102152.80;;;
79492;BMP180;68950;53.098;18.032;2023-05-07T12:09:53;102155.00;;;
79492;BMP180;68950;53.098;18.032;2023-05-07T12:12:20;102151.40;;;
79492;BMP180;68950;53.098;18.032;2023-05-07T12:14:46;102152.20;;;
79492;BMP180;68950;53.098;18.032;2023-05-07T12:17:14;102153.00;;;
79492;BMP180;68950;53.098;18.032;2023-05-07T12:19:43;102153.40;;;
79492;BMP180;68950;53.098;18.032;2023-05-07T12:22:11;102152.80;;;
79492;BMP180;68950;53.098;18.032;2023-05-07T12:24:44;102146.80;;;
79492;BMP180;68950;53.098;18.032;2023-05-07T12:27:11;102149.40;;;
79492;BMP180;68950;53.098;18.032;2023-05-07T12:29:39;102146.20;;;
79492;BMP180;68950;53.098;18.032;2023-05-07T12:32:16;102129.80;;;
79492;BMP180;68950;53.098;18.032;2023-05-07T12:34:44;102149.80;;;
79492;BMP180;68950;53.098;18.032;2023-05-07T12:37:12;102150.20;;;
79492;BMP180;68950;53.098;18.032;2023-05-07T12:39:50;102149.40;;;
79492;BMP180;68950;53.098;18.032;2023-05-07T12:42:35;102150.00;;;
79492;BMP180;68950;53.098;18.032;2023-05-07T12:45:14;102148.40;;;
79492;BMP180;68950;53.098;18.032;2023-05-07T12:47:46;102148.40;;;
79492;BMP180;68950;53.098;18.032;2023-05-07T12:50:16;102153.00;;;
79492;BMP180;68950;53.098;18.032;2023-05-07T12:52:45;102156.60;;;
79492;BMP180;68950;53.098;18.032;2023-05-07T12:55:15;102155.60;;;
79492;BMP180;68950;53.098;18.032;2023-05-07T12:57:47;102152.00;;;
79492;BMP180;68950;53.098;18.032;2023-05-07T13:00:15;102155.80;;;
79492;BMP180;68950;53.098;18.032;2023-05-07T13:02:44;102151.80;;;
79492;BMP180;68950;53.098;18.032;2023-05-07T13:05:10;102151.40;;;
79492;BMP180;68950;53.098;18.032;2023-05-07T13:07:37;102149.00;;;
79492;BMP180;68950;53.098;18.032;2023-05-07T13:10:06;102143.00;;;
79492;BMP180;68950;53.098;18.032;2023-05-07T13:12:32;102137.20;;;
79492;BMP180;68950;53.098;18.032;2023-05-07T13:14:59;102147.60;;;
79492;BMP180;68950;53.098;18.032;2023-05-07T13:17:26;102151.40;;;
79492;BMP180;68950;53.098;18.032;2023-05-07T13:19:52;102145.20;;;
79492;BMP180;68950;53.098;18.032;2023-05-07T13:22:19;102149.00;;;
79492;BMP180;68950;53.098;18.032;2023-05-07T13:24:45;102145.80;;;
79492;BMP180;68950;53.098;18.032;2023-05-07T13:27:12;102146.60;;;
79492;BMP180;68950;53.098;18.032;2023-05-07T13:29:39;102142.40;;;
79492;BMP180;68950;53.098;18.032;2023-05-07T13:32:05;102139.60;;;
79492;BMP180;68950;53.098;18.032;2023-05-07T13:34:32;102141.60;;;
79492;BMP180;68950;53.098;18.032;2023-05-07T13:36:58;102143.40;;;
79492;BMP180;68950;53.098;18.032;2023-05-07T13:39:25;102139.40;;;
79492;BMP180;68950;53.098;18.032;2023-05-07T13:41:52;102135.80;;;
79492;BMP180;68950;53.098;18.032;2023-05-07T13:44:19;102134.00;;;
79492;BMP180;68950;53.098;18.032;2023-05-07T13:46:45;102140.60;;;
79492;BMP180;68950;53.098;18.032;2023-05-07T13:49:12;102140.00;;;
79492;BMP180;68950;53.098;18.032;2023-05-07T13:51:39;102143.00;;;
79492;BMP180;68950;53.098;18.032;2023-05-07T13:54:06;102142.20;;;
79492;BMP180;68950;53.098;18.032;2023-05-07T13:56:32;102141.20;;;
79492;BMP180;68950;53.098;18.032;2023-05-07T13:58:59;102142.40;;;
79492;BMP180;68950;53.098;18.032;2023-05-07T14:01:27;102141.00;;;
79492;BMP180;68950;53.098;18.032;2023-05-07T14:03:53;102133.40;;;
79492;BMP180;68950;53.098;18.032;2023-05-07T14:06:20;102131.40;;;
79492;BMP180;68950;53.098;18.032;2023-05-07T14:08:47;102134.60;;;
79492;BMP180;68950;53.098;18.032;2023-05-07T14:11:13;102130.00;;;
79492;BMP180;68950;53.098;18.032;2023-05-07T14:13:40;102134.40;;;
79492;BMP180;68950;53.098;18.032;2023-05-07T14:16:06;102131.40;;;
79492;BMP180;68950;53.098;18.032;2023-05-07T14:18:33;102125.00;;;
79492;BMP180;68950;53.098;18.032;2023-05-07T14:21:00;102132.20;;;
79492;BMP180;68950;53.098;18.032;2023-05-07T14:23:27;102123.00;;;
79492;BMP180;68950;53.098;18.032;2023-05-07T14:25:54;102122.40;;;
79492;BMP180;68950;53.098;18.032;2023-05-07T14:28:21;102121.80;;;
79492;BMP180;68950;53.098;18.032;2023-05-07T14:30:47;102120.20;;;
79492;BMP180;68950;53.098;18.032;2023-05-07T14:33:14;102124.40;;;
79492;BMP180;68950;53.098;18.032;2023-05-07T14:35:40;102119.20;;;
79492;BMP180;68950;53.098;18.032;2023-05-07T14:38:07;102115.80;;;
79492;BMP180;68950;53.098;18.032;2023-05-07T14:40:34;102115.60;;;
79492;BMP180;68950;53.098;18.032;2023-05-07T14:43:00;102110.40;;;
79492;BMP180;68950;53.098;18.032;2023-05-07T14:45:27;102115.40;;;
79492;BMP180;68950;53.098;18.032;2023-05-07T14:47:54;102119.40;;;
79492;BMP180;68950;53.098;18.032;2023-05-07T14:50:20;102116.80;;;
79492;BMP180;68950;53.098;18.032;2023-05-07T14:52:47;102125.60;;;
79492;BMP180;68950;53.098;18.032;2023-05-07T14:55:14;102126.40;;;
79492;BMP180;68950;53.098;18.032;2023-05-07T14:57:40;102125.40;;;
79492;BMP180;68950;53.098;18.032;2023-05-07T15:00:08;102123.80;;;
79492;BMP180;68950;53.098;18.032;2023-05-07T15:02:35;102117.20;;;
79492;BMP180;68950;53.098;18.032;2023-05-07T15:05:02;102120.00;;;
79492;BMP180;68950;53.098;18.032;2023-05-07T15:07:29;102127.80;;;
79492;BMP180;68950;53.098;18.032;2023-05-07T15:09:56;102126.00;;;
79492;BMP180;68950;53.098;18.032;2023-05-07T15:12:22;102125.00;;;
79492;BMP180;68950;53.098;18.032;2023-05-07T15:14:49;102122.20;;;